createdAt,value
2023-06-07T00:00:57.888Z,20.17
2023-06-07T00:03:26.014Z,20.15
2023-06-07T00:05:53.064Z,20.14
2023-06-07T00:08:19.875Z,20.13
2023-06-07T00:10:46.479Z,20.10
2023-06-07T00:13:13.147Z,20.08
2023-06-07T00:15:39.753Z,20.06
2023-06-07T00:18:06.583Z,20.04
2023-06-07T00:20:34.634Z,20.03
2023-06-07T00:23:01.327Z,20.00
2023-06-07T00:25:29.106Z,19.98
2023-06-07T00:27:55.744Z,19.97
2023-06-07T00:30:22.431Z,19.95
2023-06-07T00:32:49.242Z,19.95
2023-06-07T00:35:15.888Z,19.94
2023-06-07T00:37:43.942Z,19.89
2023-06-07T00:40:11.483Z,19.88
2023-06-07T00:42:38.281Z,19.86
2023-06-07T00:45:05.866Z,19.85
2023-06-07T00:47:32.952Z,19.82
2023-06-07T00:49:59.899Z,19.81
2023-06-07T00:52:27.265Z,19.79
2023-06-07T00:54:55.812Z,19.78
2023-06-07T00:57:22.650Z,19.78
2023-06-07T00:59:49.453Z,19.77
2023-06-07T01:02:16.444Z,19.76
2023-06-07T01:04:43.893Z,19.76
2023-06-07T01:07:10.615Z,19.74
2023-06-07T01:09:37.423Z,19.73
2023-06-07T01:12:07.155Z,19.71
2023-06-07T01:14:35.102Z,19.71
2023-06-07T01:17:03.641Z,19.69
2023-06-07T01:19:31.283Z,19.70
2023-06-07T01:22:02.942Z,19.69
2023-06-07T01:24:31.177Z,19.67
2023-06-07T01:26:58.657Z,19.67
2023-06-07T01:29:26.595Z,19.66
2023-06-07T01:31:55.773Z,19.67
2023-06-07T01:34:24.050Z,19.65
2023-06-07T01:36:51.446Z,19.64
2023-06-07T01:39:19.829Z,19.63
2023-06-07T01:41:50.448Z,19.62
2023-06-07T01:44:18.432Z,19.61
2023-06-07T01:46:45.572Z,19.59
2023-06-07T01:49:13.840Z,19.58
2023-06-07T01:51:40.446Z,19.57
2023-06-07T01:54:07.569Z,19.55
2023-06-07T01:56:44.267Z,19.55
2023-06-07T01:59:19.649Z,19.53
2023-06-07T02:01:58.930Z,19.50
2023-06-07T02:04:28.440Z,19.48
2023-06-07T02:07:00.380Z,19.47
2023-06-07T02:09:29.034Z,19.47
2023-06-07T02:11:58.183Z,19.46
2023-06-07T02:14:26.373Z,19.46
2023-06-07T02:16:53.043Z,19.45
2023-06-07T02:19:19.766Z,19.43
2023-06-07T02:21:46.443Z,19.43
2023-06-07T02:24:13.203Z,19.41
2023-06-07T02:26:40.291Z,19.40
2023-06-07T02:29:06.953Z,19.38
2023-06-07T02:31:35.011Z,19.37
2023-06-07T02:34:01.773Z,19.36
2023-06-07T02:36:28.602Z,19.36
2023-06-07T02:38:55.346Z,19.35
2023-06-07T02:41:22.187Z,19.33
2023-06-07T02:43:48.845Z,19.31
2023-06-07T02:46:15.699Z,19.29
2023-06-07T02:48:43.717Z,19.28
2023-06-07T02:51:10.329Z,19.26
2023-06-07T02:53:36.976Z,19.24
2023-06-07T02:56:03.758Z,19.23
2023-06-07T02:58:30.429Z,19.21
2023-06-07T03:00:57.159Z,19.20
2023-06-07T03:03:24.100Z,19.17
2023-06-07T03:05:52.489Z,19.16
2023-06-07T03:08:19.221Z,19.13
2023-06-07T03:10:45.836Z,19.11
2023-06-07T03:13:13.335Z,19.11
2023-06-07T03:15:40.072Z,19.10
2023-06-07T03:18:06.786Z,19.09
2023-06-07T03:20:33.797Z,19.08
2023-06-07T03:23:02.534Z,19.05
2023-06-07T03:25:29.370Z,19.04
2023-06-07T03:27:56.051Z,19.03
2023-06-07T03:30:22.729Z,19.00
2023-06-07T03:32:49.539Z,19.00
2023-06-07T03:35:16.206Z,18.99
2023-06-07T03:37:42.905Z,18.98
2023-06-07T03:40:12.209Z,18.96
2023-06-07T03:42:38.935Z,18.96
2023-06-07T03:45:07.078Z,18.96
2023-06-07T03:47:33.924Z,18.98
2023-06-07T03:50:00.666Z,19.02
2023-06-07T03:52:27.278Z,19.08
2023-06-07T03:54:54.061Z,19.13
2023-06-07T03:57:22.324Z,19.14
2023-06-07T03:59:48.991Z,19.13
2023-06-07T04:02:15.614Z,19.12
2023-06-07T04:04:42.331Z,19.12
2023-06-07T04:07:09.021Z,19.11
2023-06-07T04:09:36.087Z,19.10
2023-06-07T04:12:02.920Z,19.10
2023-06-07T04:14:30.992Z,19.10
2023-06-07T04:16:57.703Z,19.13
2023-06-07T04:19:24.410Z,19.14
2023-06-07T04:21:51.091Z,19.13
2023-06-07T04:24:18.051Z,19.14
2023-06-07T04:26:44.781Z,19.16
2023-06-07T04:29:11.565Z,19.20
2023-06-07T04:31:41.332Z,19.23
2023-06-07T04:34:09.654Z,19.26
2023-06-07T04:36:36.315Z,19.26
2023-06-07T04:39:03.051Z,19.29
2023-06-07T04:41:29.745Z,19.28
2023-06-07T04:43:56.506Z,19.27
2023-06-07T04:46:23.238Z,19.30
2023-06-07T04:48:51.265Z,19.33
2023-06-07T04:51:17.948Z,19.32
2023-06-07T04:53:44.629Z,19.32
2023-06-07T04:56:11.492Z,19.36
2023-06-07T04:58:38.180Z,19.36
2023-06-07T05:01:04.883Z,19.38
2023-06-07T05:03:32.698Z,19.41
2023-06-07T05:06:01.090Z,19.39
2023-06-07T05:08:27.843Z,19.41
2023-06-07T05:10:54.495Z,19.44
2023-06-07T05:13:21.147Z,19.45
2023-06-07T05:15:47.836Z,19.48
2023-06-07T05:18:14.526Z,19.52
2023-06-07T05:20:41.387Z,19.56
2023-06-07T05:23:09.434Z,19.57
2023-06-07T05:25:36.066Z,19.60
2023-06-07T05:28:12.481Z,19.66
2023-06-07T05:30:41.013Z,19.70
2023-06-07T05:33:08.052Z,19.76
2023-06-07T05:35:34.882Z,19.79
2023-06-07T05:38:01.819Z,19.86
2023-06-07T05:40:30.980Z,19.98
2023-06-07T05:42:57.992Z,20.05
2023-06-07T05:45:25.170Z,20.14
2023-06-07T05:47:52.049Z,20.20
2023-06-07T05:50:19.035Z,20.32
2023-06-07T05:52:45.641Z,20.41
2023-06-07T05:55:12.499Z,20.49
2023-06-07T05:57:40.522Z,20.60
2023-06-07T06:00:08.594Z,20.64
2023-06-07T06:02:35.418Z,20.70
2023-06-07T06:05:02.601Z,20.82
2023-06-07T06:07:29.422Z,20.93
2023-06-07T06:09:56.089Z,20.99
2023-06-07T06:12:22.701Z,21.05
2023-06-07T06:14:51.865Z,21.17
2023-06-07T06:17:18.618Z,21.31
2023-06-07T06:19:45.762Z,21.43
2023-06-07T06:22:12.487Z,21.52
2023-06-07T06:24:39.286Z,21.60
2023-06-07T06:27:06.808Z,21.72
2023-06-07T06:29:33.534Z,21.82
2023-06-07T06:32:03.019Z,21.90
2023-06-07T06:34:29.879Z,21.96
2023-06-07T06:36:56.539Z,22.04
2023-06-07T06:39:23.367Z,22.16
2023-06-07T06:41:50.083Z,22.28
2023-06-07T06:44:17.023Z,22.39
2023-06-07T06:46:43.743Z,22.56
2023-06-07T06:49:13.334Z,22.78
2023-06-07T06:51:42.522Z,22.93
2023-06-07T06:54:11.024Z,23.02
2023-06-07T06:56:37.805Z,23.06
2023-06-07T06:59:04.624Z,23.14
2023-06-07T07:01:44.209Z,23.25
2023-06-07T07:04:12.835Z,23.39
2023-06-07T07:06:40.066Z,23.51
2023-06-07T07:09:06.675Z,23.57
2023-06-07T07:11:33.362Z,23.68
2023-06-07T07:14:00.028Z,23.82
2023-06-07T07:16:26.849Z,23.89
2023-06-07T07:18:53.759Z,24.04
2023-06-07T07:21:21.905Z,24.25
2023-06-07T07:23:48.888Z,24.44
2023-06-07T07:26:15.795Z,24.56
2023-06-07T07:28:42.399Z,24.66
2023-06-07T07:31:09.214Z,24.78
2023-06-07T07:33:35.911Z,24.86
2023-06-07T07:36:02.887Z,24.86
2023-06-07T07:38:30.902Z,24.89
2023-06-07T07:40:57.561Z,24.83
2023-06-07T07:43:24.268Z,24.79
2023-06-07T07:45:50.939Z,24.80
2023-06-07T07:48:17.636Z,24.80
2023-06-07T07:50:44.323Z,24.85
2023-06-07T07:53:10.974Z,24.92
2023-06-07T07:55:38.982Z,24.95
2023-06-07T07:58:06.078Z,25.04
2023-06-07T08:00:32.733Z,25.12
2023-06-07T08:02:59.477Z,25.16
2023-06-07T08:05:26.144Z,25.22
2023-06-07T08:07:54.726Z,25.23
2023-06-07T08:10:21.535Z,25.34
2023-06-07T08:12:49.684Z,25.40
2023-06-07T08:15:16.674Z,25.42
2023-06-07T08:17:43.337Z,25.49
2023-06-07T08:20:11.487Z,25.57
2023-06-07T08:22:38.413Z,25.59
2023-06-07T08:25:06.069Z,25.63
2023-06-07T08:27:32.732Z,25.69
2023-06-07T08:30:00.842Z,25.67
2023-06-07T08:32:27.603Z,25.72
2023-06-07T08:34:54.273Z,25.78
2023-06-07T08:37:22.174Z,25.78
2023-06-07T08:39:48.830Z,25.73
2023-06-07T08:42:15.692Z,25.69
2023-06-07T08:44:42.332Z,25.62
2023-06-07T08:47:12.569Z,25.59
2023-06-07T08:49:41.131Z,25.62
2023-06-07T08:52:16.346Z,25.60
2023-06-07T08:54:46.717Z,25.58
2023-06-07T08:57:15.780Z,25.61
2023-06-07T08:59:44.557Z,25.67
2023-06-07T09:02:13.152Z,25.74
2023-06-07T09:04:40.791Z,25.86
2023-06-07T09:07:07.795Z,25.98
2023-06-07T09:09:35.327Z,26.14
2023-06-07T09:12:02.222Z,26.28
2023-06-07T09:14:30.321Z,26.39
2023-06-07T09:16:58.367Z,26.46
2023-06-07T09:19:35.037Z,26.47
2023-06-07T09:22:02.696Z,26.43
2023-06-07T09:24:30.560Z,26.47
2023-06-07T09:26:58.070Z,26.55
2023-06-07T09:29:25.156Z,26.64
2023-06-07T09:31:51.960Z,26.72
2023-06-07T09:34:22.991Z,26.79
2023-06-07T09:36:52.423Z,26.84
2023-06-07T09:39:23.335Z,26.84
2023-06-07T09:41:50.647Z,26.87
2023-06-07T09:44:24.636Z,26.94
2023-06-07T09:46:51.685Z,27.02
2023-06-07T09:49:27.710Z,27.10
2023-06-07T09:51:56.126Z,27.13
2023-06-07T09:54:35.996Z,27.10
2023-06-07T09:57:02.887Z,27.10
2023-06-07T09:59:29.642Z,27.12
2023-06-07T10:01:56.486Z,27.17
2023-06-07T10:04:23.397Z,27.19
2023-06-07T10:06:51.345Z,27.28
2023-06-07T10:09:21.877Z,27.36
2023-06-07T10:11:54.170Z,27.47
2023-06-07T10:14:24.958Z,27.49
2023-06-07T10:16:55.041Z,27.54
2023-06-07T10:19:27.120Z,27.70
2023-06-07T10:21:56.877Z,27.82
2023-06-07T10:24:30.807Z,27.91
2023-06-07T10:27:04.973Z,27.96
2023-06-07T10:29:38.666Z,27.95
2023-06-07T10:32:09.785Z,27.93
2023-06-07T10:34:38.474Z,27.93
2023-06-07T10:37:05.980Z,27.97
2023-06-07T10:39:34.491Z,27.96
2023-06-07T10:42:01.564Z,27.91
2023-06-07T10:44:29.581Z,27.88
2023-06-07T10:47:27.864Z,27.93
2023-06-07T10:49:55.005Z,28.03
2023-06-07T10:52:22.365Z,28.12
2023-06-07T10:54:50.760Z,28.25
2023-06-07T10:57:32.638Z,28.45
2023-06-07T11:00:27.825Z,28.64
2023-06-07T11:03:35.781Z,28.81
2023-06-07T11:06:07.320Z,28.91
2023-06-07T11:08:34.982Z,28.97
2023-06-07T11:11:04.014Z,29.04
2023-06-07T11:14:09.700Z,29.25
2023-06-07T11:16:38.182Z,29.40
2023-06-07T11:19:08.365Z,29.45
2023-06-07T11:21:59.839Z,29.59
2023-06-07T11:24:26.985Z,29.73
2023-06-07T11:26:55.045Z,29.73
2023-06-07T11:29:22.345Z,29.84
2023-06-07T11:31:56.265Z,29.80
2023-06-07T11:34:23.083Z,29.85
2023-06-07T11:36:49.758Z,29.97
2023-06-07T11:39:16.388Z,30.08
2023-06-07T11:41:43.886Z,30.13
2023-06-07T11:44:13.291Z,30.02
2023-06-07T11:46:40.092Z,29.99
2023-06-07T11:49:08.768Z,30.09
2023-06-07T11:51:35.556Z,30.25
2023-06-07T11:54:02.256Z,30.41
2023-06-07T11:56:28.954Z,30.44
2023-06-07T11:58:55.817Z,30.40
2023-06-07T12:01:23.936Z,30.50
2023-06-07T12:03:51.474Z,30.61
2023-06-07T12:06:18.260Z,30.63
2023-06-07T12:08:44.961Z,30.72
2023-06-07T12:11:11.641Z,30.84
2023-06-07T12:13:38.701Z,30.82
2023-06-07T12:16:06.467Z,30.84
2023-06-07T12:18:34.849Z,30.87
2023-06-07T12:21:03.507Z,30.92
2023-06-07T12:23:30.357Z,30.93
2023-06-07T12:26:07.072Z,30.83
2023-06-07T12:28:33.834Z,30.68
2023-06-07T12:31:00.677Z,30.59
2023-06-07T12:33:27.821Z,30.71
2023-06-07T12:35:57.113Z,30.98
2023-06-07T12:38:24.741Z,31.22
2023-06-07T12:40:51.712Z,31.35
2023-06-07T12:43:18.468Z,31.27
2023-06-07T12:45:45.252Z,31.11
2023-06-07T12:48:12.047Z,30.91
2023-06-07T12:50:38.825Z,30.91
2023-06-07T12:53:07.194Z,31.14
2023-06-07T12:55:33.918Z,31.09
2023-06-07T12:58:00.601Z,30.96
2023-06-07T13:00:27.402Z,30.84
2023-06-07T13:02:54.226Z,30.81
2023-06-07T13:05:20.941Z,30.84
2023-06-07T13:07:47.727Z,30.89
2023-06-07T13:10:15.833Z,31.00
2023-06-07T13:12:42.531Z,31.02
2023-06-07T13:15:10.650Z,31.03
2023-06-07T13:17:37.534Z,31.21
2023-06-07T13:20:05.531Z,31.41
2023-06-07T13:22:32.565Z,31.50
2023-06-07T13:24:59.538Z,31.52
2023-06-07T13:27:27.661Z,31.57
2023-06-07T13:29:54.343Z,31.64
2023-06-07T13:32:21.242Z,31.71
2023-06-07T13:34:47.940Z,31.75
2023-06-07T13:37:14.852Z,31.81
2023-06-07T13:39:41.714Z,31.85
2023-06-07T13:42:08.877Z,31.85
2023-06-07T13:44:36.888Z,31.80
2023-06-07T13:47:04.067Z,31.79
2023-06-07T13:49:30.841Z,31.71
2023-06-07T13:51:57.448Z,31.66
2023-06-07T13:54:24.244Z,31.69
2023-06-07T13:56:51.218Z,31.85
2023-06-07T13:59:17.991Z,31.85
2023-06-07T14:01:46.108Z,31.83
2023-06-07T14:04:12.987Z,31.92
2023-06-07T14:06:39.813Z,31.80
2023-06-07T14:09:06.958Z,31.66
2023-06-07T14:11:33.631Z,31.83
2023-06-07T14:14:00.332Z,31.98
2023-06-07T14:16:28.693Z,31.98
2023-06-07T14:18:57.122Z,31.83
2023-06-07T14:21:24.477Z,31.62
2023-06-07T14:23:51.195Z,31.52
2023-06-07T14:26:17.890Z,31.41
2023-06-07T14:28:44.693Z,31.31
2023-06-07T14:31:11.525Z,31.17
2023-06-07T14:33:38.367Z,31.09
2023-06-07T14:36:06.945Z,31.00
2023-06-07T14:38:33.660Z,31.01
2023-06-07T14:41:00.347Z,31.10
2023-06-07T14:43:27.030Z,31.17
2023-06-07T14:45:53.761Z,31.17
2023-06-07T14:48:20.496Z,31.18
2023-06-07T14:50:47.118Z,31.34
2023-06-07T14:53:15.486Z,31.54
2023-06-07T14:55:42.169Z,31.66
2023-06-07T14:58:08.805Z,31.77
2023-06-07T15:00:35.535Z,31.90
2023-06-07T15:03:02.433Z,31.86
2023-06-07T15:05:29.536Z,31.83
2023-06-07T15:07:56.390Z,31.85
2023-06-07T15:10:24.439Z,31.92
2023-06-07T15:12:51.106Z,31.99
2023-06-07T15:15:17.892Z,31.95
2023-06-07T15:17:45.681Z,31.91
2023-06-07T15:20:13.914Z,31.81
2023-06-07T15:22:40.672Z,31.83
2023-06-07T15:25:08.872Z,31.90
2023-06-07T15:27:37.690Z,31.89
2023-06-07T15:30:05.710Z,31.93
2023-06-07T15:32:32.472Z,32.00
2023-06-07T15:34:59.302Z,32.03
2023-06-07T15:37:26.057Z,32.01
2023-06-07T15:39:52.744Z,32.04
2023-06-07T15:42:19.403Z,31.89
2023-06-07T15:44:47.516Z,31.68
2023-06-07T15:47:15.703Z,31.57
2023-06-07T15:49:42.382Z,31.50
2023-06-07T15:52:09.017Z,31.47
2023-06-07T15:54:35.690Z,31.33
2023-06-07T15:57:02.540Z,31.16
2023-06-07T15:59:29.150Z,31.05
2023-06-07T16:01:57.208Z,30.98
2023-06-07T16:04:23.895Z,30.84
2023-06-07T16:06:50.605Z,30.74
2023-06-07T16:09:17.262Z,30.61
2023-06-07T16:11:43.940Z,30.52
2023-06-07T16:14:11.319Z,30.43
2023-06-07T16:16:38.194Z,30.39
2023-06-07T16:19:06.892Z,30.42
2023-06-07T16:21:33.672Z,30.48
2023-06-07T16:24:00.442Z,30.41
2023-06-07T16:26:27.125Z,30.24
2023-06-07T16:28:53.751Z,30.13
2023-06-07T16:31:20.530Z,30.05
2023-06-07T16:33:47.238Z,29.95
2023-06-07T16:36:15.669Z,29.84
2023-06-07T16:38:42.342Z,29.74
2023-06-07T16:41:09.016Z,29.75
2023-06-07T16:43:35.696Z,29.80
2023-06-07T16:46:02.471Z,29.79
2023-06-07T16:48:29.157Z,29.79
2023-06-07T16:50:55.863Z,29.77
2023-06-07T16:53:23.953Z,29.70
2023-06-07T16:55:50.677Z,29.63
2023-06-07T16:58:17.349Z,29.58
2023-06-07T17:00:44.144Z,29.52
2023-06-07T17:03:10.873Z,29.47
2023-06-07T17:05:37.571Z,29.36
2023-06-07T17:08:04.798Z,29.25
2023-06-07T17:10:32.868Z,29.12
2023-06-07T17:12:59.548Z,29.02
2023-06-07T17:15:26.422Z,28.94
2023-06-07T17:17:53.100Z,28.86
2023-06-07T17:20:19.838Z,28.77
2023-06-07T17:22:46.537Z,28.72
2023-06-07T17:25:13.259Z,28.64
2023-06-07T17:27:41.351Z,28.61
2023-06-07T17:30:09.189Z,28.56
2023-06-07T17:32:35.898Z,28.49
2023-06-07T17:35:02.756Z,28.44
2023-06-07T17:37:29.470Z,28.39
2023-06-07T17:39:56.142Z,28.33
2023-06-07T17:42:22.935Z,28.28
2023-06-07T17:44:51.627Z,28.25
2023-06-07T17:47:18.384Z,28.22
2023-06-07T17:49:46.161Z,28.19
2023-06-07T17:52:21.576Z,28.16
2023-06-07T17:54:49.422Z,28.11
2023-06-07T17:57:16.626Z,28.08
2023-06-07T17:59:43.354Z,28.06
2023-06-07T18:02:11.535Z,28.03
2023-06-07T18:04:38.456Z,27.97
2023-06-07T18:07:05.889Z,27.91
2023-06-07T18:09:32.525Z,27.88
2023-06-07T18:11:59.329Z,27.87
2023-06-07T18:14:26.052Z,27.89
2023-06-07T18:16:52.723Z,27.87
2023-06-07T18:19:20.832Z,27.82
2023-06-07T18:21:47.545Z,27.79
2023-06-07T18:24:14.388Z,27.75
2023-06-07T18:26:41.235Z,27.71
2023-06-07T18:29:07.908Z,27.67
2023-06-07T18:31:34.566Z,27.62
2023-06-07T18:34:01.275Z,27.58
2023-06-07T18:36:29.581Z,27.54
2023-06-07T18:38:56.254Z,27.51
2023-06-07T18:41:23.084Z,27.47
2023-06-07T18:43:49.974Z,27.44
2023-06-07T18:46:17.768Z,27.40
2023-06-07T18:48:46.730Z,27.34
2023-06-07T18:51:13.410Z,27.24
2023-06-07T18:53:41.432Z,27.18
2023-06-07T18:56:08.150Z,27.13
2023-06-07T18:58:34.797Z,27.05
2023-06-07T19:01:01.504Z,26.97
2023-06-07T19:03:28.366Z,26.90
2023-06-07T19:05:55.128Z,26.82
2023-06-07T19:08:21.907Z,26.77
2023-06-07T19:10:49.986Z,26.70
2023-06-07T19:13:16.624Z,26.59
2023-06-07T19:15:43.534Z,26.50
2023-06-07T19:18:10.237Z,26.43
2023-06-07T19:20:37.055Z,26.35
2023-06-07T19:23:03.761Z,26.25
2023-06-07T19:25:30.420Z,26.14
2023-06-07T19:27:58.495Z,26.02
2023-06-07T19:30:25.127Z,25.97
2023-06-07T19:32:51.870Z,25.91
2023-06-07T19:35:18.716Z,25.87
2023-06-07T19:37:45.510Z,25.78
2023-06-07T19:40:16.851Z,25.71
2023-06-07T19:42:44.857Z,25.64
2023-06-07T19:45:12.966Z,25.56
2023-06-07T19:47:39.947Z,25.50
2023-06-07T19:50:07.780Z,25.46
2023-06-07T19:52:34.549Z,25.39
2023-06-07T19:55:01.282Z,25.30
2023-06-07T19:57:28.008Z,25.24
2023-06-07T19:59:54.794Z,25.17
2023-06-07T20:02:23.084Z,25.13
2023-06-07T20:04:49.800Z,25.07
2023-06-07T20:07:16.492Z,25.01
2023-06-07T20:09:43.193Z,24.95
2023-06-07T20:12:11.475Z,24.92
2023-06-07T20:14:38.191Z,24.87
2023-06-07T20:17:05.616Z,24.81
2023-06-07T20:19:33.759Z,24.73
2023-06-07T20:22:00.485Z,24.68
2023-06-07T20:24:27.230Z,24.60
2023-06-07T20:26:53.863Z,24.54
2023-06-07T20:29:20.611Z,24.50
2023-06-07T20:31:48.710Z,24.45
2023-06-07T20:34:15.549Z,24.40
2023-06-07T20:36:44.052Z,24.35
2023-06-07T20:39:10.774Z,24.30
2023-06-07T20:41:37.472Z,24.26
2023-06-07T20:44:04.967Z,24.23
2023-06-07T20:46:31.875Z,24.18
2023-06-07T20:48:58.626Z,24.13
2023-06-07T20:51:25.400Z,24.08
2023-06-07T20:53:53.424Z,24.03
2023-06-07T20:56:20.105Z,23.96
2023-06-07T20:58:46.831Z,23.89
2023-06-07T21:01:13.612Z,23.84
2023-06-07T21:03:40.425Z,23.77
2023-06-07T21:06:07.282Z,23.72
2023-06-07T21:08:33.910Z,23.68
2023-06-07T21:11:02.071Z,23.64
2023-06-07T21:13:28.832Z,23.60
2023-06-07T21:15:55.539Z,23.57
2023-06-07T21:18:22.585Z,23.53
2023-06-07T21:20:49.326Z,23.50
2023-06-07T21:23:16.037Z,23.42
2023-06-07T21:25:43.099Z,23.38
2023-06-07T21:28:11.140Z,23.37
2023-06-07T21:30:37.859Z,23.33
2023-06-07T21:33:04.633Z,23.30
2023-06-07T21:35:32.018Z,23.28
2023-06-07T21:37:58.678Z,23.25
2023-06-07T21:40:26.655Z,23.22
2023-06-07T21:42:53.342Z,23.18
2023-06-07T21:45:21.492Z,23.14
2023-06-07T21:47:48.113Z,23.11
2023-06-07T21:50:14.941Z,23.10
2023-06-07T21:52:41.613Z,23.07
2023-06-07T21:55:09.106Z,23.02
2023-06-07T21:57:35.776Z,22.98
2023-06-07T22:00:02.614Z,22.96
2023-06-07T22:02:31.757Z,22.95
2023-06-07T22:04:59.466Z,22.93
2023-06-07T22:07:26.290Z,22.93
2023-06-07T22:09:52.973Z,22.91
2023-06-07T22:12:19.627Z,22.89
2023-06-07T22:14:46.216Z,22.86
2023-06-07T22:17:12.980Z,22.84
2023-06-07T22:19:41.082Z,22.82
2023-06-07T22:22:07.800Z,22.80
2023-06-07T22:24:34.647Z,22.77
2023-06-07T22:27:01.313Z,22.75
2023-06-07T22:29:27.951Z,22.73
2023-06-07T22:31:54.749Z,22.72
2023-06-07T22:34:21.542Z,22.70
2023-06-07T22:36:49.562Z,22.69
2023-06-07T22:39:16.250Z,22.67
2023-06-07T22:41:42.979Z,22.64
2023-06-07T22:44:09.949Z,22.60
2023-06-07T22:46:37.582Z,22.57
2023-06-07T22:49:04.639Z,22.53
2023-06-07T22:51:31.794Z,22.49
2023-06-07T22:54:00.662Z,22.44
2023-06-07T22:56:27.795Z,22.42
2023-06-07T22:58:54.634Z,22.39
2023-06-07T23:01:21.351Z,22.34
2023-06-07T23:03:48.180Z,22.28
2023-06-07T23:06:14.842Z,22.24
2023-06-07T23:08:41.752Z,22.20
2023-06-07T23:11:09.944Z,22.14
2023-06-07T23:13:36.674Z,22.08
2023-06-07T23:16:03.418Z,22.06
2023-06-07T23:18:30.135Z,22.02
2023-06-07T23:20:57.017Z,21.98
2023-06-07T23:23:23.865Z,21.94
2023-06-07T23:25:50.499Z,21.92
2023-06-07T23:28:18.551Z,21.89
2023-06-07T23:30:45.307Z,21.85
2023-06-07T23:33:12.033Z,21.83
2023-06-07T23:35:38.703Z,21.79
2023-06-07T23:38:05.408Z,21.78
2023-06-07T23:40:32.038Z,21.76
2023-06-07T23:42:58.857Z,21.72
2023-06-07T23:45:27.376Z,21.67
2023-06-07T23:47:54.188Z,21.63
2023-06-07T23:50:21.172Z,21.59
2023-06-07T23:52:51.062Z,21.55
2023-06-07T23:55:17.765Z,21.49
2023-06-07T23:57:44.491Z,21.44
